Pagina principale
METAR-TAF:

METAR-TAF

Aeroporti :

Saint-Yan, Francia

latitudine: 46-24-45N, longitudine: 004-00-48E, altezza: 244 m

Osservazione

Il bollettino è stato emesso 19 minuti fa, alle 10:00 UTC
Vento 5 kt da nord-ovest, variando fra ovest e nord
Temperature 14°C
Umidità 63%
Pressione 1011 hPa
Visibilità 10 km o più
Nuvoloso ad un'altezza di 2000 ft
Nuvoloso ad un'altezza di 6400 ft

METAR: LFLN 071000Z AUTO 32005KT 270V360 9999 BKN020 BKN064 14/07 Q1011 NOSIG

Ora: 12:19 (10:19 UTC)

Previsione

Il bollettino è stato emesso 2 ore e 19 minuti fa, alle 08:00 UTC
Previsione valida dal 07 alle 09 UTC al 07 alle 18 UTC
Vento 8 kt da nord-ovest
Visibilità 10 km o più
Poco nuvoloso ad un'altezza di 2000 ft
Nuvoloso ad un'altezza di 5000 ft
Temporaneamente
dal 07 alle 09 UTC al 07 alle 10 UTC
Nuvoloso ad un'altezza di 1200 ft

TAF: LFLN 070800Z 0709/0718 32008KT 9999 FEW020 BKN050 TEMPO 0709/0710 BKN012

Osservazioni e previsioni meteorologiche di più di 4000 aeroporti (messaggi METAR e TAF).

Le stazioni disponibili sono rappresentate dai dischi gialli e rossi sulla carta.

Puntare il mouse per vedere il nome della stazione.

Clicca sopra per visualizzare le osservazioni e previsioni meteorologiche.

Per cambiare la mappa : fare clic sui pulsanti verdi con una croce nera per ingrandire, il pulsante verde con un trattino per diminuire, o sulla freccia verde per le mappe adiacenti.


METAR-TAF: